Airfield :
LOGIN :

Register | Disclaimer

   EN    FR    IT 

 










Legend :    VFR   Marginal VFR   IFR   Intensive IFR   Very Intensive IFR
Visi :
Ceiling :
>= 8 km
>= 3000ft
5 to 8 km
1000 to 3000 ft
1500m to 5 km
500 to 1000 ft
800 to 1500m
200 to 500 ft
< 800m
< 200 ft
Symbols :   Thunderstorms  Fog  Heavy snow  Heavy precipitations  Wind > 20 kt
SIGMETs :     Misc.  Thunderstorms  Icing  Turbulence  Mountain Waves  Volcanic Ashes







- Airport Elevation : 272 ft


EGWC - DCAE Cosford

CURRENT METAR :
  • 240850Z 35002KT 9999 FEW020 19/14 Q1027 BLU

EXPIRED METARs :
  • 240750Z 31001KT 9999 SCT040 17/14 Q1027 BLU
  • 240650Z 05001KT 9999 SCT040 15/12 Q1026 BLU

TAF TAF EGWC
Valid from the 24 at 09:00 until the 24 at 17:00 UTC


240741Z 2409/2417 24003KT 9999 SCT030
TEMPO 2409/2411 SCT018
No reported NOTAMs for that airfield.



MET'MAP, your aeronautical weather chart ! - Copyright ORBIFLY December 2007 - Disclaimer

ORBIFLY MET'MAP TEAM :

Programming & Development : Alexandra Zaïnal
Concept & Development : Baudouin d'Aumeries
Co-Development & Prog : Marc-Olivier Méhu
Technical & hardware support : Manuel Goepfert

Contact : metmap@orbifly.com




SOURCES & CREDITS :

   NOAA